Latest Weather Observations for Richmond

IDN60801

Issued at 11:22 am EDT Friday 15 November 2019 (issued every 10 minutes, with the page automatically refreshed every 10 minutes)

About weather observations | Map of weather stations | Latest weather observations for NSW | Other Formats
Station Details ID: 067105 Name: RICHMOND RAAF Lat: -33.60 Lon: 150.78 Height: 19.0 m
Data from the previous 72 hours. | See also: Recent months at Richmond
Date/Time
EDT
Temp
°C
App
Temp
°C
Dew
Point
°C
Rel
Hum
%
Delta-T
°C
Wind Press
QNH
hPa
Press
MSL
hPa
Rain since
9am
mm
Dir  Spd
km/h
Gust
km/h
Spd
kts
Gust
kts
15/11:00am 28.0 25.0 4.3 22 12.1 NW 9 19 5 10 1009.5 1009.4 0.0
15/10:30am 26.8 23.7 5.7 26 10.9 ENE 11 19 6 10 1009.9 1009.8 0.0
15/10:00am 25.4 22.6 5.1 27 10.3 NE 9 15 5 8 1010.2 1010.1 0.0
15/09:30am 24.7 21.4 4.5 27 10.1 NE 11 17 6 9 1010.4 1010.3 0.0
15/09:00am 23.9 20.6 4.8 29 9.5 NNE 11 15 6 8 1010.6 1010.5 0.0
15/08:30am 23.5 20.2 6.3 33 8.8 N 13 17 7 9 1010.8 1010.7 0.0
15/08:00am 22.1 18.7 7.5 39 7.6 NNW 15 19 8 10 1010.7 1010.6 0.0
15/07:30am 19.7 17.9 10.7 56 4.9 NNW 11 15 6 8 1010.7 1010.6 0.0
15/07:00am 16.8 16.2 9.0 60 4.0 NE 2 7 1 4 1010.6 1010.5 0.0
15/06:30am 13.6 11.7 8.9 73 2.4 NW 9 11 5 6 1010.5 1010.4 0.0
15/06:00am 11.0 9.3 7.7 80 1.6 NE 6 11 3 6 1010.3 1010.2 0.0
15/05:30am 11.3 9.6 8.2 81 1.5 NNE 7 9 4 5 1010.2 1010.1 0.0
15/05:00am 11.4 11.1 8.6 83 1.4 CALM 0 0 0 0 1010.1 1010.0 0.0
15/04:30am 11.1 10.3 8.1 82 1.5 WNW 2 7 1 4 1010.3 1010.2 0.0
15/04:00am 12.2 11.1 10.6 90 0.8 ENE 7 17 4 9 1010.3 1010.2 0.0
15/03:30am 11.1 10.9 9.2 88 0.9 CALM 0 0 0 0 1010.4 1010.3 0.0
15/03:00am 11.8 11.3 9.4 85 1.2 NNW 2 13 1 7 1010.5 1010.4 0.0
15/02:30am 12.5 12.7 10.4 87 1.1 CALM 0 0 0 0 1010.5 1010.4 0.0
15/02:00am 12.2 11.6 8.9 80 1.7 NNE 2 7 1 4 1010.8 1010.7 0.0
15/01:30am 12.8 11.8 10.2 84 1.3 WSW 6 11 3 6 1011.1 1011.0 0.0
15/01:00am 12.9 12.8 9.4 79 1.8 CALM 0 0 0 0 1011.4 1011.3 0.0
15/12:30am 13.8 13.0 9.8 77 2.1 SE 4 9 2 5 1011.5 1011.4 0.0
15/12:00am 13.7 12.4 9.2 74 2.3 SW 6 9 3 5 1011.6 1011.5 0.0
 
Date/Time
EDT
Temp
°C
App
Temp
°C
Dew
Point
°C
Rel
Hum
%
Delta-T
°C
Wind Press
QNH
hPa
Press
MSL
hPa
Rain since
9am
mm
Dir  Spd
km/h
Gust
km/h
Spd
kts
Gust
kts
14/11:30pm 15.1 15.0 9.5 69 2.9 CALM 0 0 0 0 1011.7 1011.6 0.0
14/11:00pm 15.8 15.8 9.7 67 3.2 CALM 0 0 0 0 1011.7 1011.6 0.0
14/10:30pm 16.6 15.3 9.1 61 3.9 SSE 6 9 3 5 1011.6 1011.5 0.0
14/10:00pm 18.7 17.4 9.8 56 4.7 E 7 11 4 6 1011.3 1011.2 0.0
14/09:30pm 19.0 16.9 9.8 55 4.9 ESE 11 15 6 8 1011.1 1011.0 0.0
14/09:00pm 19.7 17.7 10.1 54 5.2 E 11 15 6 8 1010.9 1010.8 0.0
14/08:30pm 19.7 17.8 9.0 50 5.6 E 9 15 5 8 1010.4 1010.3 0.0
14/08:00pm 20.5 17.4 8.8 47 6.2 ENE 15 17 8 9 1010.2 1010.1 0.0
14/07:30pm 22.6 19.2 9.0 42 7.3 ENE 17 24 9 13 1009.8 1009.7 0.0
14/07:00pm 24.1 20.2 8.5 37 8.4 ENE 19 22 10 12 1009.5 1009.4 0.0
14/06:30pm 25.7 22.6 8.7 34 9.2 ENE 15 19 8 10 1009.2 1009.1 0.0
14/06:00pm 26.3 22.6 7.8 31 9.9 NE 17 24 9 13 1008.9 1008.8 0.0
14/05:30pm 26.9 23.8 7.4 29 10.4 ENE 13 20 7 11 1008.9 1008.8 0.0
14/05:00pm 26.8 22.8 6.8 28 10.6 ENE 17 24 9 13 1009.0 1008.9 0.0
14/04:36pm 28.2 23.5 5.1 23 11.9 NE 19 28 10 15 1008.9 1008.8 0.0
14/04:30pm 27.6 22.2 4.6 23 11.7 NE 22 32 12 17 1008.9 1008.8 0.0
14/04:00pm 27.4 21.9 3.8 22 11.9 NE 22 30 12 16 1009.3 1009.2 0.0
14/03:30pm 26.7 21.8 3.9 23 11.4 NNE 19 24 10 13 1009.9 1009.8 0.0
14/03:00pm 27.0 21.8 3.5 22 11.7 NE 20 28 11 15 1010.3 1010.2 0.0
14/02:58pm 27.1 21.9 3.6 22 11.7 NE 20 28 11 15 1010.3 1010.2 0.0
14/02:30pm 27.5 22.5 4.5 23 11.7 NE 20 26 11 14 1010.8 1010.7 0.0
14/02:00pm 27.5 22.9 3.9 22 11.9 NE 17 28 9 15 1011.5 1011.4 0.0
14/01:30pm 26.7 22.5 3.9 23 11.4 NNE 15 24 8 13 1012.2 1012.1 0.0
14/01:00pm 26.6 24.3 5.0 25 11.0 E 6 13 3 7 1012.8 1012.7 0.0
14/12:30pm 26.0 22.4 5.0 26 10.7 NNE 13 19 7 10 1013.6 1013.5 0.0
14/12:00pm 25.1 22.4 3.7 25 10.5 E 7 17 4 9 1014.3 1014.2 0.0
14/11:30am 24.2 21.7 4.0 27 10.0 WNW 6 13 3 7 1014.7 1014.6 0.0
14/11:00am 24.3 21.4 4.6 28 9.8 NNW 9 17 5 9 1015.1 1015.0 0.0
14/10:30am 22.8 19.7 3.4 28 9.4 W 9 13 5 7 1015.4 1015.3 0.0
14/10:00am 22.5 19.3 3.1 28 9.3 SSE 9 19 5 10 1015.6 1015.5 0.0
14/09:30am 21.7 18.1 2.9 29 8.9 SSW 11 17 6 9 1016.0 1015.9 0.0
14/09:00am 20.8 17.5 2.6 30 8.5 WSW 9 19 5 10 1016.1 1016.0 0.0
14/08:30am 19.8 17.1 2.6 32 8.0 WNW 6 11 3 6 1016.0 1015.9 0.0
14/08:00am 17.4 15.7 4.0 41 6.3 NNW 2 9 1 5 1015.8 1015.7 0.0
14/07:30am 15.1 14.0 5.0 51 4.8 CALM 0 0 0 0 1015.6 1015.5 0.0
14/07:00am 12.7 10.8 4.7 58 3.7 NNW 4 9 2 5 1015.4 1015.3 0.0
14/06:30am 10.6 9.3 4.1 64 2.9 CALM 0 0 0 0 1015.1 1015.0 0.0
14/06:00am 9.2 6.6 3.2 66 2.6 SE 6 9 3 5 1014.9 1014.8 0.0
14/05:30am 9.6 8.2 3.8 67 2.5 CALM 0 4 0 2 1014.5 1014.4 0.0
14/05:00am 9.5 7.9 2.4 61 3.0 CALM 0 0 0 0 1014.1 1014.0 0.0
14/04:30am 12.3 9.5 3.0 53 4.1 WNW 7 9 4 5 1013.9 1013.8 0.0
14/04:00am 11.8 10.2 2.5 53 4.0 CALM 0 0 0 0 1013.8 1013.7 0.0
14/03:30am 12.8 10.3 1.5 46 4.8 NNW 4 11 2 6 1013.7 1013.6 0.0
14/03:00am 12.7 10.5 1.1 45 4.9 SSW 2 6 1 3 1013.9 1013.8 0.0
14/02:30am 14.1 10.9 0.7 40 5.7 SW 7 9 4 5 1014.0 1013.9 0.0
14/02:00am 15.0 12.9 -1.1 33 6.6 CALM 0 0 0 0 1014.3 1014.2 0.0
14/01:30am 16.0 13.9 -0.7 32 7.0 CALM 0 0 0 0 1014.2 1014.1 0.0
14/01:00am 17.6 13.1 -0.6 29 7.8 WSW 13 17 7 9 1014.3 1014.2 0.0
14/12:30am 17.9 12.6 -0.8 28 8.0 WSW 17 22 9 12 1014.4 1014.3 0.0
14/12:00am 18.1 13.5 -0.7 28 8.0 WSW 13 17 7 9 1014.4 1014.3 0.0
 
Date/Time
EDT
Temp
°C
App
Temp
°C
Dew
Point
°C
Rel
Hum
%
Delta-T
°C
Wind Press
QNH
hPa
Press
MSL
hPa
Rain since
9am
mm
Dir  Spd
km/h
Gust
km/h
Spd
kts
Gust
kts
13/11:30pm 18.2 14.4 -1.1 27 8.2 WSW 9 15 5 8 1014.3 1014.2 0.0
13/11:00pm 18.4 13.8 -0.9 27 8.3 W 13 22 7 12 1014.0 1013.9 0.0
13/10:30pm 19.2 13.8 -1.3 25 8.8 W 17 22 9 12 1014.0 1013.9 0.0
13/10:00pm 19.7 14.0 -0.9 25 8.9 W 19 24 10 13 1014.0 1013.9 0.0
13/09:30pm 20.4 13.6 -2.0 22 9.5 W 24 37 13 20 1013.7 1013.6 0.0
13/09:00pm 21.0 14.1 -2.8 20 10.0 WSW 24 35 13 19 1013.1 1013.0 0.0
13/08:30pm 21.7 15.1 -2.9 19 10.4 W 22 33 12 18 1012.5 1012.4 0.0
13/08:00pm 22.1 15.4 -4.1 17 10.9 WSW 22 37 12 20 1011.9 1011.8 0.0
13/07:30pm 22.5 16.7 -4.5 16 11.2 WSW 17 24 9 13 1011.4 1011.3 0.0
13/07:00pm 24.6 16.9 -6.7 12 12.7 W 26 35 14 19 1010.4 1010.3 0.0
13/06:30pm 25.4 18.2 -5.0 13 12.8 WNW 24 32 13 17 1009.7 1009.6 0.0
13/06:00pm 26.6 19.6 -7.5 10 13.9 W 22 32 12 17 1009.2 1009.1 0.0
13/05:30pm 27.2 20.6 -7.0 10 14.1 W 20 30 11 16 1009.2 1009.1 0.0
13/05:00pm 27.0 20.0 -7.2 10 14.0 W 22 33 12 18 1009.1 1009.0 0.0
13/04:30pm 26.9 19.9 -7.2 10 14.0 W 22 33 12 18 1009.0 1008.9 0.0
13/04:00pm 26.7 19.9 -8.8 9 14.1 WNW 20 30 11 16 1009.4 1009.3 0.0
13/03:30pm 26.6 22.3 -5.1 12 13.5 N 9 19 5 10 1009.7 1009.6 0.0
13/03:00pm 26.2 20.4 -9.1 9 13.9 SSW 15 24 8 13 1010.1 1010.0 0.0
13/02:30pm 26.2 21.5 -9.1 9 13.9 SSW 9 20 5 11 1010.8 1010.7 0.0
13/02:00pm 25.0 20.6 -6.3 12 12.8 E 9 19 5 10 1011.3 1011.2 0.0
13/01:30pm 24.8 19.2 -6.5 12 12.7 SSE 15 24 8 13 1011.6 1011.5 0.0
13/01:00pm 24.2 19.5 -4.9 14 12.1 NNE 11 17 6 9 1012.0 1011.9 0.0
13/12:30pm 23.1 17.8 -6.8 13 11.9 SE 13 19 7 10 1012.5 1012.4 0.0
13/12:00pm 23.2 19.0 -4.0 16 11.4 N 9 15 5 8 1012.9 1012.8 0.0
13/11:30am 22.3 17.2 -5.6 15 11.3 WNW 13 20 7 11 1013.1 1013.0 0.0
13/11:00am 21.4 17.5 -6.3 15 10.9 SW 6 15 3 8 1013.5 1013.4 0.0
13/10:30am 21.1 14.6 -5.7 16 10.7 S 20 28 11 15 1013.9 1013.8 0.0
13/10:00am 20.8 14.5 -4.4 18 10.3 SSW 20 30 11 16 1014.1 1014.0 0.0
13/09:30am 19.7 13.5 -3.2 21 9.5 SW 20 33 11 18 1014.1 1014.0 0.0
13/09:00am 18.9 14.6 -1.5 25 8.7 SW 11 17 6 9 1014.2 1014.1 0.0
13/08:30am 17.9 13.3 -0.8 28 8.0 WSW 13 22 7 12 1014.0 1013.9 0.0
13/08:00am 17.7 12.9 -0.1 30 7.7 W 15 22 8 12 1013.7 1013.6 0.0
13/07:30am 16.6 11.4 2.2 38 6.5 W 19 24 10 13 1013.4 1013.3 0.0
13/07:00am 13.3 10.9 7.1 66 3.0 NNE 9 13 5 7 1012.9 1012.8 0.0
13/06:30am 12.4 9.4 7.5 72 2.4 W 13 15 7 8 1012.7 1012.6 0.0
13/06:00am 10.5 7.9 7.9 84 1.3 W 11 13 6 7 1012.4 1012.3 0.0
13/05:30am 10.4 9.1 9.8 96 0.3 W 7 11 4 6 1012.0 1011.9 0.0
13/05:00am 10.9 11.0 10.1 95 0.4 CALM 0 0 0 0 1011.7 1011.6 0.0
13/04:30am 10.9 10.6 10.0 94 0.5 E 2 7 1 4 1011.4 1011.3 0.0
13/04:00am 10.5 8.8 9.7 95 0.4 SW 9 11 5 6 1011.0 1010.9 0.0
13/03:30am 12.2 12.6 11.3 94 0.5 CALM 0 0 0 0 1010.8 1010.7 0.0
13/03:00am 12.9 12.0 10.8 87 1.1 NE 6 7 3 4 1010.6 1010.5 0.0
13/02:30am 14.4 13.7 12.1 86 1.2 NNE 7 9 4 5 1010.4 1010.3 0.0
13/02:00am 14.3 14.0 11.6 84 1.4 NNE 4 7 2 4 1010.5 1010.4 0.0
13/01:30am 14.9 14.0 11.3 79 1.9 NNE 7 9 4 5 1010.5 1010.4 0.0
13/01:00am 15.3 15.7 11.1 76 2.2 CALM 0 0 0 0 1010.5 1010.4 0.0
13/12:30am 16.4 15.6 11.6 73 2.6 SSE 7 11 4 6 1010.5 1010.4 0.0
13/12:00am 16.8 15.2 11.7 72 2.8 S 11 17 6 9 1010.4 1010.3 0.0
 
Date/Time
EDT
Temp
°C
App
Temp
°C
Dew
Point
°C
Rel
Hum
%
Delta-T
°C
Wind Press
QNH
hPa
Press
MSL
hPa
Rain since
9am
mm
Dir  Spd
km/h
Gust
km/h
Spd
kts
Gust
kts
12/11:30pm 17.3 15.8 12.0 71 2.9 S 11 17 6 9 1010.1 1010.0 0.0
12/11:00pm 17.9 14.1 12.4 70 3.1 SSE 24 39 13 21 1009.4 1009.3 0.0
12/10:30pm 18.9 13.8 13.1 69 3.3 SE 32 46 17 25 1008.5 1008.4 0.0
12/10:00pm 21.2 17.1 11.5 54 5.4 SE 24 37 13 20 1007.4 1007.3 0.0
12/09:30pm 25.7 21.0 3.0 23 11.1 W 17 22 9 12 1006.4 1006.3 0.0
12/09:00pm 26.5 20.7 2.4 21 11.8 WSW 22 30 12 16 1005.3 1005.2 0.0
12/08:46pm 27.2 19.2 1.6 19 12.3 WSW 33 52 18 28 1004.9 1004.8 0.0
12/08:30pm 27.7 21.3 1.2 18 12.7 WSW 24 33 13 18 1004.5 1004.4 0.0
12/08:11pm 28.4 20.4 0.2 16 13.4 WSW 32 50 17 27 1003.8 1003.7 0.0
12/08:00pm 28.6 19.5 -0.5 15 13.7 WSW 37 54 20 29 1003.6 1003.5 0.0
12/07:35pm 29.6 21.3 -1.7 13 14.5 W 32 50 17 27 1003.5 1003.4 0.0
12/07:30pm 29.8 21.3 -1.5 13 14.5 W 33 50 18 27 1003.2 1003.1 0.0
12/07:24pm 30.3 22.3 -2.2 12 15.0 WSW 30 50 16 27 1003.0 1002.9 0.0
12/07:00pm 31.7 24.7 -3.6 10 16.1 WSW 24 37 13 20 1002.1 1002.0 0.0
12/06:30pm 32.4 24.1 -4.5 9 16.6 WSW 30 44 16 24 1001.4 1001.3 0.0
12/06:04pm 33.8 25.1 -5.0 8 17.5 W 32 50 17 27 1000.7 1000.6 0.0
12/06:00pm 33.7 24.8 -5.1 8 17.6 WNW 33 50 18 27 1000.5 1000.4 0.0
12/05:31pm 34.6 24.6 -4.4 8 17.9 WNW 39 57 21 31 1000.0 999.9 0.0
12/05:30pm 34.6 24.6 -4.4 8 17.9 WNW 39 50 21 27 1000.1 1000.0 0.0
12/05:00pm 34.8 23.9 -6.0 7 18.4 WNW 43 67 23 36 1000.1 1000.0 0.0
12/04:30pm 35.5 24.7 -3.8 8 18.3 W 44 65 24 35 999.8 999.7 0.0
12/04:18pm 35.7 25.5 -3.6 8 18.4 W 41 61 22 33 999.9 999.8 0.0
12/04:13pm 35.8 27.1 -3.5 8 18.4 WNW 33 61 18 33 999.7 999.6 0.0
12/04:05pm 36.5 28.8 -3.0 8 18.8 NW 28 46 15 25 999.9 999.8 0.0
12/04:00pm 36.3 27.2 -3.2 8 18.8 NW 35 46 19 25 1000.0 999.9 0.0
12/03:53pm 35.8 26.9 -5.3 7 18.7 NW 33 54 18 29 1000.0 999.9 0.0
12/03:44pm 36.1 26.8 -5.1 7 18.9 WNW 35 52 19 28 1000.0 999.9 0.0
12/03:39pm 36.1 26.7 -3.3 8 18.6 WNW 37 52 20 28 1000.0 999.9 0.0
12/03:32pm 36.5 28.2 -1.4 9 18.5 NW 32 50 17 27 1000.1 1000.0 0.0
12/03:30pm 36.3 27.8 -3.2 8 18.7 NW 32 44 17 24 1000.2 1000.1 0.0
12/03:00pm 36.2 27.5 -3.3 8 18.7 WNW 33 46 18 25 1000.7 1000.6 0.0
12/02:39pm 36.6 27.6 0.1 10 18.2 W 37 56 20 30 1001.0 1000.9 0.0
12/02:30pm 35.6 25.7 -3.7 8 18.4 W 39 56 21 30 1001.2 1001.1 0.0
12/02:20pm 36.2 27.7 -3.3 8 18.7 WNW 32 54 17 29 1001.5 1001.4 0.0
12/02:00pm 35.7 27.5 -3.6 8 18.5 WNW 30 44 16 24 1002.0 1001.9 0.0
12/01:49pm 35.4 27.2 -3.8 8 18.3 W 30 48 16 26 1002.0 1001.9 0.0
12/01:30pm 35.2 27.2 -2.4 9 17.9 WNW 30 43 16 23 1002.6 1002.5 0.0
12/01:00pm 35.5 27.1 -2.2 9 18.1 W 32 50 17 27 1003.1 1003.0 0.0
12/12:30pm 35.9 28.7 0.9 11 17.6 NW 28 48 15 26 1003.5 1003.4 0.0
12/12:27pm 35.0 27.3 -2.6 9 17.8 NW 28 48 15 26 1003.4 1003.3 0.0
12/12:00pm 34.1 25.0 -3.2 9 17.4 WNW 35 48 19 26 1004.1 1004.0 0.0
12/11:30am 33.5 25.0 -3.7 9 17.1 W 32 50 17 27 1004.6 1004.5 0.0

Other formats

Comma delimited format used in spreadsheet applications
http://www.bom.gov.au/fwo/IDN60801/IDN60801.95753.axf

JavaScript Object Notation format (JSON) in row-major order
http://www.bom.gov.au/fwo/IDN60801/IDN60801.95753.json

Data quality

Most of these data are generated automatically and are frequently updated. Quality checks on data are not normally performed. It is possible for incorrect values to appear. Refer to information at About Latest Weather Observations and please check the disclaimer before using these data.